Time;durP1;ratioP1;P1;durP2;ratioP2;P2;SDS_P1;SDS_P2;PMS_P1;PMS_P2;Temp;Humidity;BMP_temperature;BMP_pressure;BME280_temperature;BME280_humidity;BME280_pressure;Samples;Min_cycle;Max_cycle;Signal;HPM_P1;HPM_P2
2022/10/03 00:02:16;;;;;;;7.38;1.98;;;12.10;99.90;;;;;;4986644;28;25069;-71
2022/10/03 00:05:02;;;;;;;10.40;2.05;;;11.90;99.90;;;;;;4990598;28;25073;-70
2022/10/03 00:07:46;;;;;;;9.90;2.28;;;11.90;99.90;;;;;;4991992;28;25154;-71
2022/10/03 00:10:22;;;;;;;10.90;2.83;;;12.00;99.90;;;;;;4985780;28;25059;-70
2022/10/03 00:12:55;;;;;;;11.13;2.58;;;12.00;99.90;;;;;;4991970;28;25044;-69
2022/10/03 00:15:26;;;;;;;7.50;2.00;;;12.10;99.90;;;;;;4984355;28;25085;-70
2022/10/03 00:18:12;;;;;;;9.18;2.70;;;12.20;99.90;;;;;;4993871;28;25112;-73
2022/10/03 00:20:47;;;;;;;8.82;2.38;;;12.20;99.90;;;;;;4990341;28;25112;-70
2022/10/03 00:23:23;;;;;;;13.75;2.28;;;12.20;99.90;;;;;;4992971;28;25150;-71
2022/10/03 00:26:25;;;;;;;10.50;2.38;;;12.10;99.90;;;;;;4987241;28;25075;-70
2022/10/03 00:28:55;;;;;;;9.35;1.77;;;12.20;99.90;;;;;;4985026;28;25090;-69
2022/10/03 00:31:44;;;;;;;14.43;2.22;;;12.30;99.90;;;;;;4976719;28;25108;-71
2022/10/03 00:34:37;;;;;;;6.43;2.17;;;12.20;99.90;;;;;;4984341;28;25048;-71
2022/10/03 00:37:12;;;;;;;13.13;2.38;;;12.20;99.90;;;;;;4983307;28;25125;-70
2022/10/03 00:40:10;;;;;;;6.97;1.75;;;12.10;99.90;;;;;;4989466;28;25062;-71
2022/10/03 00:42:47;;;;;;;7.15;2.15;;;12.00;99.90;;;;;;4979566;28;25060;-70
2022/10/03 00:45:54;;;;;;;6.55;1.77;;;11.90;99.90;;;;;;4989208;28;25150;-71
2022/10/03 00:48:59;;;;;;;10.48;2.53;;;11.90;99.90;;;;;;4981434;28;25153;-71
2022/10/03 00:51:41;;;;;;;7.13;2.15;;;11.80;99.90;;;;;;4978111;28;25146;-71
2022/10/03 00:54:34;;;;;;;8.65;2.47;;;11.80;99.90;;;;;;4991499;28;25059;-70
2022/10/03 00:57:27;;;;;;;8.65;1.77;;;11.80;99.90;;;;;;4993522;28;25060;-70
2022/10/03 01:00:16;;;;;;;10.15;2.00;;;11.70;99.90;;;;;;4984966;28;25102;-71
2022/10/03 01:02:59;;;;;;;7.85;1.75;;;11.80;99.90;;;;;;4992566;28;25106;-71
2022/10/03 01:06:03;;;;;;;9.30;2.45;;;11.80;99.90;;;;;;4998883;28;25067;-71
2022/10/03 01:08:38;;;;;;;3.67;1.63;;;11.70;99.90;;;;;;4991890;28;25077;-71
2022/10/03 01:11:31;;;;;;;9.27;1.92;;;11.80;99.90;;;;;;4986213;28;25166;-71
2022/10/03 01:14:38;;;;;;;12.27;2.05;;;11.80;99.90;;;;;;4989402;28;25050;-71
2022/10/03 01:17:09;;;;;;;5.82;1.92;;;11.80;99.90;;;;;;4973641;28;25102;-71
2022/10/03 01:19:58;;;;;;;7.90;2.20;;;11.80;99.90;;;;;;4994762;28;25070;-71
2022/10/03 01:22:44;;;;;;;9.52;2.20;;;11.80;99.90;;;;;;4997197;28;25108;-69
2022/10/03 01:25:17;;;;;;;7.05;3.53;;;11.80;99.90;;;;;;4996516;28;25053;-72
2022/10/03 01:30:37;;;;;;;6.65;2.08;;;11.70;99.90;;;;;;4980389;28;25054;-70
2022/10/03 01:33:22;;;;;;;5.45;2.08;;;11.80;99.90;;;;;;4998408;28;25092;-71
2022/10/03 01:36:19;;;;;;;6.32;1.88;;;11.90;99.90;;;;;;4985641;28;25126;-71
2022/10/03 01:38:52;;;;;;;5.30;1.80;;;11.80;99.90;;;;;;5000778;28;25085;-70
2022/10/03 01:41:27;;;;;;;5.00;1.70;;;11.90;99.90;;;;;;4986698;28;25072;-70
2022/10/03 01:43:59;;;;;;;8.52;1.80;;;11.90;99.90;;;;;;4995542;28;25147;-71
2022/10/03 01:46:32;;;;;;;;;;;11.80;99.90;;;;;;4988853;28;25071;-71
2022/10/03 01:49:10;;;;;;;6.70;1.60;;;11.70;99.90;;;;;;4988391;28;25136;-72
2022/10/03 01:52:05;;;;;;;10.10;1.67;;;11.70;99.90;;;;;;4990745;28;25060;-70
2022/10/03 01:55:01;;;;;;;15.18;2.88;;;11.70;99.90;;;;;;4977015;28;25066;-70
2022/10/03 01:57:59;;;;;;;8.55;1.70;;;11.70;99.90;;;;;;4988045;28;25063;-70
2022/10/03 02:00:52;;;;;;;11.52;1.45;;;11.80;99.90;;;;;;4982600;28;25157;-72
2022/10/03 02:03:27;;;;;;;5.20;1.70;;;11.80;99.90;;;;;;4988631;28;25134;-70
2022/10/03 02:06:05;;;;;;;4.55;1.73;;;11.70;99.90;;;;;;4991148;28;25019;-70
2022/10/03 02:08:34;;;;;;;4.15;1.70;;;11.60;99.90;;;;;;4995239;28;25060;-71
2022/10/03 02:11:02;;;;;;;8.73;1.65;;;11.60;99.90;;;;;;4998329;28;25051;-70
2022/10/03 02:13:35;;;;;;;6.47;1.58;;;11.60;99.90;;;;;;4982392;28;25067;-72
2022/10/03 02:16:14;;;;;;;9.75;1.70;;;11.70;99.90;;;;;;4990347;28;25076;-70
2022/10/03 02:18:53;;;;;;;10.10;1.95;;;11.60;99.90;;;;;;4992375;28;25053;-71
2022/10/03 02:21:25;;;;;;;9.02;1.92;;;11.60;99.90;;;;;;4990064;28;25069;-71
2022/10/03 02:24:19;;;;;;;11.02;1.60;;;11.60;99.90;;;;;;4989472;28;25115;-71
2022/10/03 02:27:06;;;;;;;6.20;1.88;;;11.50;99.90;;;;;;4996782;28;25059;-70
2022/10/03 02:29:59;;;;;;;9.52;1.92;;;11.30;99.90;;;;;;4988588;28;25062;-71
2022/10/03 02:32:43;;;;;;;7.15;1.88;;;11.30;99.90;;;;;;4996715;28;25071;-71
2022/10/03 02:35:43;;;;;;;13.05;2.13;;;11.40;99.90;;;;;;4986052;28;25133;-70
2022/10/03 02:38:35;;;;;;;10.52;2.58;;;11.50;99.90;;;;;;4993901;28;25082;-71
2022/10/03 02:41:42;;;;;;;4.40;1.38;;;11.60;99.90;;;;;;4986703;28;25065;-70
2022/10/03 02:44:29;;;;;;;10.15;1.95;;;11.70;99.90;;;;;;4996011;28;25080;-71
2022/10/03 02:47:39;;;;;;;5.53;1.50;;;11.70;99.90;;;;;;4993980;28;25078;-71
2022/10/03 02:50:26;;;;;;;6.63;1.60;;;11.80;99.90;;;;;;4976704;28;25136;-72
2022/10/03 02:53:26;;;;;;;6.45;1.73;;;11.80;99.90;;;;;;4998250;28;25155;-71
2022/10/03 02:56:30;;;;;;;9.63;1.75;;;11.70;99.90;;;;;;4994280;28;25081;-71
2022/10/03 02:59:33;;;;;;;7.50;1.73;;;11.70;99.90;;;;;;4985961;28;25066;-71
2022/10/03 03:02:10;;;;;;;8.95;1.52;;;11.90;99.90;;;;;;4996198;28;25076;-70
2022/10/03 03:04:51;;;;;;;6.25;1.63;;;11.90;99.90;;;;;;4981180;28;25062;-71
2022/10/03 03:07:18;;;;;;;2.67;1.33;;;11.90;99.90;;;;;;5000506;28;25111;-71
2022/10/03 03:10:06;;;;;;;5.63;1.45;;;11.90;99.90;;;;;;4990467;28;25076;-70
2022/10/03 03:12:44;;;;;;;9.73;2.00;;;11.90;99.90;;;;;;4992260;28;25144;-72
2022/10/03 03:15:43;;;;;;;6.60;1.52;;;12.00;99.90;;;;;;4999788;28;25063;-72
2022/10/03 03:18:33;;;;;;;5.28;1.30;;;11.90;99.90;;;;;;4984068;28;25146;-70
2022/10/03 03:21:37;;;;;;;6.65;1.67;;;11.80;99.90;;;;;;4990709;28;25051;-71
2022/10/03 03:24:20;;;;;;;5.55;1.50;;;11.80;99.90;;;;;;4967537;28;25107;-72
2022/10/03 03:26:55;;;;;;;8.05;1.85;;;11.70;99.90;;;;;;4994515;28;25082;-70
2022/10/03 03:29:23;;;;;;;6.63;1.80;;;11.70;99.90;;;;;;4982358;28;25063;-71
2022/10/03 03:32:33;;;;;;;8.93;2.00;;;11.70;99.90;;;;;;4981340;28;25135;-72
2022/10/03 03:35:13;;;;;;;6.53;1.65;;;11.80;99.90;;;;;;4991737;28;25071;-71
2022/10/03 03:37:42;;;;;;;5.82;2.75;;;11.70;99.90;;;;;;4999668;28;25068;-71
2022/10/03 03:40:22;;;;;;;7.68;1.38;;;11.60;99.90;;;;;;4982666;28;25075;-71
2022/10/03 03:43:07;;;;;;;9.65;1.98;;;11.60;99.90;;;;;;4990692;28;25088;-71
2022/10/03 03:46:11;;;;;;;8.65;1.80;;;11.60;99.90;;;;;;4997533;28;25111;-70
2022/10/03 03:49:01;;;;;;;4.18;1.27;;;11.60;99.90;;;;;;4979982;28;25074;-70
2022/10/03 03:51:48;;;;;;;5.22;1.48;;;11.80;99.90;;;;;;4980964;28;25060;-71
2022/10/03 03:54:36;;;;;;;4.80;1.48;;;11.80;99.90;;;;;;4995121;28;25139;-70
2022/10/03 03:57:14;;;;;;;12.18;2.80;;;11.70;99.90;;;;;;4983451;28;25053;-71
2022/10/03 04:00:04;;;;;;;4.63;1.67;;;11.80;99.90;;;;;;4995742;28;25074;-71
2022/10/03 04:02:42;;;;;;;13.15;1.90;;;11.80;99.90;;;;;;4995868;28;25101;-71
2022/10/03 04:05:16;;;;;;;10.93;2.03;;;11.70;99.90;;;;;;4979811;28;25072;-71
2022/10/03 04:07:55;;;;;;;3.63;1.40;;;11.60;99.90;;;;;;4998115;28;25087;-70
2022/10/03 04:10:52;;;;;;;6.03;1.88;;;11.60;99.90;;;;;;4996003;28;25081;-71
2022/10/03 04:13:46;;;;;;;7.22;2.03;;;11.70;99.90;;;;;;4993128;28;25143;-70
2022/10/03 04:19:36;;;;;;;4.75;1.40;;;11.80;99.90;;;;;;4988046;28;25154;-70
2022/10/03 04:22:14;;;;;;;7.07;2.03;;;11.80;99.90;;;;;;4988262;28;25069;-71
2022/10/03 04:25:07;;;;;;;10.75;2.33;;;11.80;99.90;;;;;;4990906;28;25057;-70
2022/10/03 04:28:06;;;;;;;8.32;2.03;;;11.80;99.90;;;;;;4995500;28;25101;-72
2022/10/03 04:30:50;;;;;;;3.28;1.65;;;11.80;99.90;;;;;;4986152;28;25106;-70
2022/10/03 04:33:27;;;;;;;7.30;1.65;;;11.70;99.90;;;;;;4990229;28;25124;-70
2022/10/03 04:36:35;;;;;;;9.90;1.90;;;11.80;99.90;;;;;;4993259;28;25139;-71
2022/10/03 04:39:27;;;;;;;7.03;1.90;;;11.70;99.90;;;;;;4986317;28;25075;-70
2022/10/03 04:42:00;;;;;;;13.30;2.33;;;11.70;99.90;;;;;;4994699;28;25147;-71
2022/10/03 04:44:48;;;;;;;14.57;2.10;;;11.70;99.90;;;;;;4990933;28;25068;-72
2022/10/03 04:47:31;;;;;;;10.52;1.85;;;11.80;99.90;;;;;;4995979;28;25151;-70
2022/10/03 04:50:24;;;;;;;3.35;1.75;;;11.80;99.90;;;;;;4990613;28;25073;-72
2022/10/03 04:53:09;;;;;;;10.52;2.22;;;11.70;99.90;;;;;;5000568;28;25083;-71
2022/10/03 04:55:59;;;;;;;7.18;1.88;;;11.60;99.90;;;;;;5006181;28;25060;-71
2022/10/03 04:58:55;;;;;;;6.97;1.67;;;11.60;99.90;;;;;;4996482;28;25075;-71
2022/10/03 05:01:52;;;;;;;6.50;1.67;;;11.70;99.90;;;;;;4998166;28;25101;-71
2022/10/03 05:04:28;;;;;;;5.50;2.05;;;11.80;99.90;;;;;;4989935;28;25067;-71
2022/10/03 05:07:20;;;;;;;6.28;1.90;;;11.80;99.90;;;;;;4991017;28;25057;-70
2022/10/03 05:10:03;;;;;;;8.88;1.52;;;11.80;99.90;;;;;;4989122;28;25149;-71
2022/10/03 05:12:52;;;;;;;4.22;2.53;;;11.90;99.90;;;;;;4993765;28;25079;-70
2022/10/03 05:15:40;;;;;;;10.15;2.08;;;12.00;99.90;;;;;;4985591;28;25117;-71
2022/10/03 05:18:27;;;;;;;6.78;2.13;;;12.20;99.90;;;;;;4988550;28;25063;-70
2022/10/03 05:21:11;;;;;;;7.40;2.15;;;12.30;99.90;;;;;;4988870;28;25067;-70
2022/10/03 05:23:50;;;;;;;5.70;1.70;;;12.30;99.90;;;;;;4991459;28;25069;-71
2022/10/03 05:26:29;;;;;;;8.85;2.42;;;12.50;99.90;;;;;;4989917;28;25062;-72
2022/10/03 05:29:09;;;;;;;9.45;2.25;;;12.60;99.90;;;;;;4987961;28;25113;-72
2022/10/03 05:32:02;;;;;;;13.35;1.88;;;12.60;99.90;;;;;;4990272;28;25113;-72
2022/10/03 05:35:12;;;;;;;10.57;2.25;;;12.80;99.90;;;;;;4993327;28;25054;-71
2022/10/03 05:37:38;;;;;;;4.85;2.03;;;13.00;99.90;;;;;;4991509;28;25049;-71
2022/10/03 05:40:18;;;;;;;5.22;1.42;;;13.10;99.90;;;;;;4992446;28;25145;-72
2022/10/03 05:42:51;;;;;;;6.70;1.50;;;13.10;99.90;;;;;;4993273;28;25064;-70
2022/10/03 05:45:56;;;;;;;6.68;1.45;;;13.10;99.90;;;;;;4995570;28;25049;-71
2022/10/03 05:48:36;;;;;;;10.10;3.03;;;13.20;99.90;;;;;;4991037;28;25056;-71
2022/10/03 05:51:32;;;;;;;6.55;2.00;;;13.20;99.90;;;;;;4985850;28;25086;-71
2022/10/03 05:54:01;;;;;;;7.63;2.92;;;13.20;99.90;;;;;;4984687;28;25063;-70
2022/10/03 05:56:51;;;;;;;4.28;1.92;;;13.20;99.90;;;;;;4992401;28;25049;-71
2022/10/03 05:59:23;;;;;;;10.02;2.78;;;13.10;99.90;;;;;;4990756;28;25054;-71
2022/10/03 06:02:19;;;;;;;10.25;2.03;;;13.00;99.90;;;;;;5005700;28;25096;-71
2022/10/03 06:05:14;;;;;;;2.80;1.42;;;12.80;99.90;;;;;;4999096;28;25101;-73
2022/10/03 06:07:58;;;;;;;7.30;1.98;;;12.80;99.90;;;;;;4991779;28;25164;-72
2022/10/03 06:10:51;;;;;;;10.65;1.75;;;12.70;99.90;;;;;;5002529;28;25103;-72
2022/10/03 06:13:42;;;;;;;6.47;2.13;;;12.80;99.90;;;;;;4989512;28;25127;-72
2022/10/03 06:16:39;;;;;;;5.88;1.60;;;12.70;99.90;;;;;;4995614;28;25138;-72
2022/10/03 06:19:25;;;;;;;9.80;2.42;;;12.60;99.90;;;;;;4989303;28;25131;-71
2022/10/03 06:22:25;;;;;;;9.18;2.08;;;12.50;99.90;;;;;;4994631;28;25077;-73
2022/10/03 06:25:29;;;;;;;4.97;2.05;;;12.50;99.90;;;;;;5007697;28;25102;-72
2022/10/03 06:28:13;;;;;;;9.75;2.38;;;12.50;99.90;;;;;;4983484;28;25081;-72
2022/10/03 06:30:52;;;;;;;32.28;4.63;;;12.40;99.90;;;;;;4992982;28;25066;-71
2022/10/03 06:33:31;;;;;;;5.72;2.03;;;12.40;99.90;;;;;;4984848;28;25145;-71
2022/10/03 06:36:09;;;;;;;5.60;2.53;;;12.40;99.90;;;;;;4994870;28;25168;-73
2022/10/03 06:39:12;;;;;;;12.32;2.90;;;12.40;99.90;;;;;;4995233;28;25072;-71
2022/10/03 06:42:28;;;;;;;4.88;2.13;;;12.40;99.90;;;;;;4985108;28;25134;-71
2022/10/03 06:45:30;;;;;;;10.38;2.55;;;12.40;99.90;;;;;;4979053;28;25130;-72
2022/10/03 06:48:20;;;;;;;7.22;2.63;;;12.40;99.90;;;;;;4982471;28;25062;-72
2022/10/03 06:51:12;;;;;;;13.30;2.75;;;12.40;99.90;;;;;;4990335;28;25057;-72
2022/10/03 06:53:49;;;;;;;;;;;12.50;99.90;;;;;;4991016;28;25072;-72
2022/10/03 06:56:37;;;;;;;8.02;2.30;;;12.60;99.90;;;;;;5001390;28;24066;-71
2022/10/03 06:59:27;;;;;;;11.00;2.95;;;12.80;99.90;;;;;;4998573;28;25114;-72
2022/10/03 07:02:29;;;;;;;9.13;3.92;;;13.00;99.90;;;;;;5008443;28;25071;-72
2022/10/03 07:05:14;;;;;;;5.68;2.70;;;13.20;99.90;;;;;;5017560;28;25076;-72
2022/10/03 07:08:20;;;;;;;6.07;2.80;;;13.50;99.90;;;;;;5002516;28;25090;-72
2022/10/03 07:10:58;;;;;;;10.45;3.42;;;13.60;99.90;;;;;;5003620;28;25076;-73
2022/10/03 07:13:52;;;;;;;5.82;2.15;;;13.80;99.90;;;;;;5003214;28;25070;-72
2022/10/03 07:16:54;;;;;;;8.88;2.83;;;14.00;99.90;;;;;;5005158;28;25070;-72
2022/10/03 07:19:54;;;;;;;8.80;2.03;;;14.20;99.90;;;;;;5003954;28;25150;-72
2022/10/03 07:23:05;;;;;;;7.78;2.47;;;14.40;99.90;;;;;;5009395;28;25066;-72
2022/10/03 07:25:52;;;;;;;12.93;2.72;;;14.50;99.90;;;;;;5001708;28;25087;-71
2022/10/03 07:28:29;;;;;;;5.38;2.00;;;14.50;99.90;;;;;;4999642;28;25159;-69
2022/10/03 07:31:13;;;;;;;7.75;1.83;;;14.60;99.90;;;;;;4987425;28;25090;-71
2022/10/03 07:33:44;;;;;;;6.65;2.05;;;14.60;99.90;;;;;;4995452;28;25066;-72
2022/10/03 07:39:43;;;;;;;11.93;2.40;;;14.90;99.90;;;;;;4993264;28;25118;-72
2022/10/03 07:42:27;;;;;;;11.32;2.30;;;14.90;99.90;;;;;;4988259;28;25076;-71
2022/10/03 07:45:29;;;;;;;8.85;2.13;;;14.90;99.90;;;;;;4996610;28;25067;-72
2022/10/03 07:48:13;;;;;;;9.90;2.47;;;14.90;99.90;;;;;;4993065;28;25132;-72
2022/10/03 07:51:08;;;;;;;15.93;2.83;;;15.00;99.90;;;;;;5001989;28;25088;-71
2022/10/03 07:53:48;;;;;;;13.27;2.53;;;15.20;99.90;;;;;;4998256;28;25073;-72
2022/10/03 07:56:47;;;;;;;4.68;1.80;;;15.40;99.90;;;;;;5002117;28;25056;-72
2022/10/03 07:59:34;;;;;;;11.70;2.42;;;15.30;99.90;;;;;;4985810;28;25046;-71
2022/10/03 08:02:23;;;;;;;8.93;2.17;;;15.30;99.90;;;;;;4993574;28;25111;-71
2022/10/03 08:04:55;;;;;;;7.65;2.28;;;15.30;99.90;;;;;;4992731;28;25073;-72
2022/10/03 08:07:50;;;;;;;10.10;2.88;;;15.40;99.90;;;;;;4990862;28;25091;-71
2022/10/03 08:10:30;;;;;;;7.15;3.58;;;15.60;99.90;;;;;;5004664;28;25066;-72
2022/10/03 08:13:27;;;;;;;15.32;2.88;;;15.70;99.90;;;;;;4991144;28;25071;-71
2022/10/03 08:16:00;;;;;;;5.65;1.67;;;15.80;99.90;;;;;;4996552;28;25081;-72
2022/10/03 08:18:47;;;;;;;5.20;1.45;;;16.00;99.90;;;;;;5004541;28;25081;-72
2022/10/03 08:21:38;;;;;;;6.90;2.47;;;15.90;99.90;;;;;;4998639;28;25058;-72
2022/10/03 08:24:30;;;;;;;5.63;1.77;;;15.70;99.90;;;;;;4998930;28;25192;-74
2022/10/03 08:27:09;;;;;;;9.75;1.80;;;15.60;99.90;;;;;;4999174;28;25079;-71
2022/10/03 08:30:05;;;;;;;5.95;2.20;;;15.60;99.90;;;;;;5002669;28;25097;-71
2022/10/03 08:32:55;;;;;;;12.18;2.13;;;15.70;99.90;;;;;;4994068;28;25077;-70
2022/10/03 08:35:51;;;;;;;9.35;1.85;;;15.90;99.90;;;;;;4990100;28;25079;-72
2022/10/03 08:38:47;;;;;;;10.18;2.00;;;16.00;99.90;;;;;;4991273;28;25049;-72
2022/10/03 08:41:40;;;;;;;4.93;1.60;;;16.00;99.90;;;;;;4987429;28;25065;-71
2022/10/03 08:44:25;;;;;;;7.38;1.70;;;16.10;99.90;;;;;;4992716;28;25067;-72
2022/10/03 08:46:50;;;;;;;5.80;2.28;;;16.20;99.90;;;;;;4997134;28;25093;-72
2022/10/03 08:49:44;;;;;;;6.38;1.58;;;16.20;99.90;;;;;;4995523;28;25178;-70
2022/10/03 08:52:47;;;;;;;6.13;1.67;;;16.20;99.90;;;;;;4987233;28;25061;-72
2022/10/03 08:55:34;;;;;;;15.70;2.47;;;16.20;99.90;;;;;;4989672;28;25073;-72
2022/10/03 08:58:12;;;;;;;6.82;2.03;;;16.40;99.90;;;;;;4989199;28;25077;-72
2022/10/03 09:00:54;;;;;;;14.60;3.17;;;16.60;99.90;;;;;;4985290;28;25070;-71
2022/10/03 09:03:32;;;;;;;6.85;2.30;;;16.70;99.90;;;;;;4990758;28;25122;-72
2022/10/03 09:06:23;;;;;;;9.90;2.72;;;16.60;99.90;;;;;;4985815;28;25067;-71
2022/10/03 09:08:52;;;;;;;8.27;2.17;;;16.60;99.90;;;;;;4999882;28;25060;-71
2022/10/03 09:11:30;;;;;;;9.75;2.22;;;16.60;99.90;;;;;;4998998;28;25060;-70
2022/10/03 09:14:04;;;;;;;7.63;2.25;;;16.60;99.90;;;;;;4997385;28;25049;-71
2022/10/03 09:16:39;;;;;;;11.55;2.08;;;16.50;99.90;;;;;;4999930;28;25077;-73
2022/10/03 09:19:19;;;;;;;6.63;1.92;;;16.50;99.90;;;;;;4992026;28;25062;-72
2022/10/03 09:21:56;;;;;;;6.32;2.10;;;16.40;99.90;;;;;;4999492;28;25095;-71
2022/10/03 09:24:54;;;;;;;10.43;1.88;;;16.40;99.90;;;;;;4997266;28;25101;-72
2022/10/03 09:27:38;;;;;;;7.75;2.15;;;16.50;99.90;;;;;;4992220;28;25090;-70
2022/10/03 09:30:14;;;;;;;9.40;2.10;;;16.50;99.90;;;;;;4998160;28;25063;-71
2022/10/03 09:32:42;;;;;;;7.35;3.50;;;16.60;99.90;;;;;;4996060;28;25093;-71
2022/10/03 09:35:17;;;;;;;10.02;2.05;;;16.60;99.90;;;;;;4998352;28;25070;-71
2022/10/03 09:38:20;;;;;;;6.22;2.40;;;16.70;99.90;;;;;;5014240;28;25082;-71
2022/10/03 09:41:24;;;;;;;11.23;2.28;;;16.70;99.90;;;;;;5000301;28;25105;-70
2022/10/03 09:44:05;;;;;;;4.63;1.90;;;16.70;99.90;;;;;;4998931;28;25073;-72
2022/10/03 09:47:36;;;;;;;5.35;1.70;;;16.70;99.90;;;;;;5002584;28;25157;-71
2022/10/03 09:50:01;;;;;;;6.85;2.33;;;16.70;99.90;;;;;;4998754;28;25072;-71
2022/10/03 09:52:49;;;;;;;6.93;1.83;;;16.60;99.90;;;;;;4998784;28;25094;-71
2022/10/03 09:55:21;;;;;;;8.68;3.03;;;16.70;99.90;;;;;;5001745;28;25061;-71
2022/10/03 09:58:21;;;;;;;7.22;2.15;;;16.80;99.90;;;;;;4999513;28;25046;-71
2022/10/03 10:00:49;;;;;;;13.95;2.38;;;16.80;99.90;;;;;;4999468;28;25079;-71
2022/10/03 10:03:48;;;;;;;9.63;2.25;;;17.00;99.90;;;;;;5007696;28;25058;-72
2022/10/03 10:06:31;;;;;;;7.05;2.20;;;17.30;99.90;;;;;;4988456;28;25169;-71
2022/10/03 10:09:29;;;;;;;9.50;2.17;;;17.30;99.90;;;;;;5002282;28;25071;-72
2022/10/03 10:12:16;;;;;;;8.70;2.38;;;17.30;99.90;;;;;;4963169;28;25084;-71
2022/10/03 10:14:59;;;;;;;11.52;1.88;;;17.30;99.90;;;;;;4997552;28;25059;-71
2022/10/03 10:17:59;;;;;;;14.55;1.88;;;17.30;99.90;;;;;;4996499;28;25048;-72
2022/10/03 10:20:47;;;;;;;10.00;2.30;;;17.20;99.90;;;;;;4992094;28;25084;-70
2022/10/03 10:23:48;;;;;;;5.45;1.63;;;17.30;99.90;;;;;;4994387;28;25140;-70
2022/10/03 10:26:22;;;;;;;5.22;1.65;;;17.30;99.90;;;;;;4993653;28;25085;-71
2022/10/03 10:29:02;;;;;;;5.07;1.63;;;17.20;99.90;;;;;;4993378;28;25402;-70
2022/10/03 10:31:37;;;;;;;7.35;2.03;;;17.30;99.90;;;;;;4999808;28;25065;-71
2022/10/03 10:34:25;;;;;;;5.82;1.67;;;17.40;99.90;;;;;;4997688;28;25095;-71
2022/10/03 10:37:00;;;;;;;14.20;2.00;;;17.30;99.90;;;;;;4999245;28;25135;-70
2022/10/03 10:40:06;;;;;;;5.78;1.60;;;17.30;99.90;;;;;;4999989;28;25088;-71
2022/10/03 10:43:29;;;;;;;10.15;2.17;;;17.50;99.90;;;;;;4986485;28;25062;-70
2022/10/03 10:46:13;;;;;;;6.57;1.73;;;17.20;99.90;;;;;;4979414;28;25076;-71
2022/10/03 10:49:13;;;;;;;7.95;1.60;;;17.10;99.90;;;;;;4976984;28;25075;-70
2022/10/03 10:52:12;;;;;;;5.70;1.75;;;17.00;99.90;;;;;;4994408;28;25062;-71
2022/10/03 10:55:16;;;;;;;5.70;1.67;;;17.00;99.90;;;;;;4997484;28;25066;-71
2022/10/03 10:58:00;;;;;;;4.50;1.70;;;17.00;99.90;;;;;;4986957;28;25070;-69
2022/10/03 11:00:50;;;;;;;6.53;1.20;;;16.80;99.90;;;;;;4989139;28;25050;-70
2022/10/03 11:04:01;;;;;;;8.73;1.45;;;16.60;99.90;;;;;;4999837;28;25072;-72
2022/10/03 11:06:46;;;;;;;8.40;1.65;;;16.60;99.90;;;;;;4988725;28;25064;-71
2022/10/03 11:09:17;;;;;;;3.75;1.45;;;16.60;99.90;;;;;;4998253;28;25086;-70
2022/10/03 11:11:48;;;;;;;11.18;1.92;;;16.60;99.90;;;;;;4996542;28;25162;-71
2022/10/03 11:14:34;;;;;;;7.82;1.50;;;16.80;99.90;;;;;;4999944;28;25075;-71
2022/10/03 11:17:28;;;;;;;5.75;1.75;;;16.90;99.90;;;;;;4996348;28;25068;-71
2022/10/03 11:20:50;;;;;;;9.90;1.75;;;16.80;99.90;;;;;;5000665;28;25064;-71
2022/10/03 11:23:42;;;;;;;6.93;1.83;;;16.80;99.90;;;;;;4987596;28;25146;-72
2022/10/03 11:26:58;;;;;;;10.82;1.90;;;16.80;99.90;;;;;;4998961;28;25079;-70
2022/10/03 11:29:42;;;;;;;4.68;1.42;;;16.80;99.90;;;;;;4996779;28;25091;-71
2022/10/03 11:32:43;;;;;;;4.07;1.33;;;16.80;99.90;;;;;;4992276;28;25137;-71
2022/10/03 11:35:28;;;;;;;4.85;1.38;;;16.80;99.90;;;;;;4988129;28;25154;-72
2022/10/03 11:38:10;;;;;;;5.40;1.08;;;16.80;99.90;;;;;;4984339;28;25060;-72
2022/10/03 11:41:07;;;;;;;3.28;1.48;;;16.90;99.90;;;;;;4995558;28;25095;-72
2022/10/03 11:44:10;;;;;;;4.28;1.73;;;16.90;99.90;;;;;;4991068;28;25072;-72
2022/10/03 11:47:17;;;;;;;7.60;1.45;;;17.00;99.90;;;;;;4988491;28;25069;-71
2022/10/03 11:50:20;;;;;;;7.90;1.52;;;16.90;99.90;;;;;;4984787;28;25072;-72
2022/10/03 11:53:01;;;;;;;6.78;1.55;;;16.70;99.90;;;;;;4998642;28;25058;-70
2022/10/03 11:55:50;;;;;;;7.38;1.50;;;16.70;99.90;;;;;;4993814;28;25153;-72
2022/10/03 11:58:53;;;;;;;7.00;1.30;;;16.70;99.90;;;;;;4983397;28;25070;-71
2022/10/03 12:01:31;;;;;;;12.63;1.45;;;16.70;99.90;;;;;;4989955;28;25062;-71
2022/10/03 12:03:56;;;;;;;6.03;1.35;;;16.70;99.90;;;;;;4990598;28;25137;-70
2022/10/03 12:09:29;;;;;;;5.93;1.45;;;16.80;99.90;;;;;;4996108;28;25070;-71
2022/10/03 12:11:58;;;;;;;5.82;1.13;;;16.80;99.90;;;;;;4990033;28;25086;-70
2022/10/03 12:14:28;;;;;;;6.00;1.50;;;16.70;99.90;;;;;;4985531;28;25163;-72
2022/10/03 12:17:11;;;;;;;4.03;2.35;;;16.50;99.90;;;;;;4990750;28;25075;-71
2022/10/03 12:19:49;;;;;;;8.05;1.48;;;16.50;99.90;;;;;;4997293;28;25129;-70
2022/10/03 12:22:29;;;;;;;7.85;1.52;;;16.50;99.90;;;;;;4994604;28;25150;-71
2022/10/03 12:25:06;;;;;;;5.80;2.42;;;16.70;99.90;;;;;;4983128;28;25072;-71
2022/10/03 12:28:14;;;;;;;7.45;1.42;;;16.80;99.90;;;;;;4993258;28;25064;-71
2022/10/03 12:31:06;;;;;;;6.65;1.63;;;16.70;99.90;;;;;;4999005;28;25058;-71
2022/10/03 12:33:55;;;;;;;7.10;1.92;;;16.70;99.90;;;;;;4991152;28;25109;-69
2022/10/03 12:36:30;;;;;;;6.15;1.73;;;16.80;99.90;;;;;;4994834;28;25079;-70
2022/10/03 12:39:20;;;;;;;6.95;1.40;;;16.80;99.90;;;;;;4986972;28;25079;-70
2022/10/03 12:42:21;;;;;;;11.40;1.65;;;16.90;99.90;;;;;;4985790;28;25136;-69
2022/10/03 12:44:59;;;;;;;7.07;1.30;;;17.10;99.90;;;;;;4993432;28;25047;-69
2022/10/03 12:47:52;;;;;;;11.48;1.70;;;17.10;99.90;;;;;;5002115;28;25110;-70
2022/10/03 12:50:38;;;;;;;7.75;1.70;;;16.90;99.90;;;;;;4990424;28;25061;-70
2022/10/03 12:53:14;;;;;;;6.50;1.33;;;16.80;99.90;;;;;;4998809;28;25074;-72
2022/10/03 12:56:02;;;;;;;12.32;2.20;;;16.80;99.90;;;;;;4986755;28;25148;-72
2022/10/03 12:58:37;;;;;;;15.35;1.83;;;16.80;99.90;;;;;;4999868;28;25060;-70
2022/10/03 13:01:30;;;;;;;7.07;1.80;;;16.80;99.90;;;;;;5015084;28;25045;-70
2022/10/03 13:04:21;;;;;;;11.77;1.85;;;16.70;99.90;;;;;;4990135;28;25105;-71
2022/10/03 13:07:15;;;;;;;7.10;1.65;;;16.80;99.90;;;;;;4995767;28;25062;-69
2022/10/03 13:09:57;;;;;;;11.65;1.95;;;16.90;99.90;;;;;;4969294;28;25129;-70
2022/10/03 13:12:43;;;;;;;5.97;1.77;;;17.00;99.90;;;;;;4994057;28;25069;-70
2022/10/03 13:15:46;;;;;;;9.07;1.50;;;17.20;99.90;;;;;;4980448;28;25116;-71
2022/10/03 13:18:11;;;;;;;7.95;1.30;;;17.30;99.90;;;;;;4993916;28;25491;-71
2022/10/03 13:20:44;;;;;;;11.68;2.15;;;17.20;99.90;;;;;;4997751;28;25095;-71
2022/10/03 13:23:46;;;;;;;7.32;1.95;;;17.20;99.90;;;;;;5010014;28;25074;-72
2022/10/03 13:26:26;;;;;;;13.38;2.20;;;17.20;99.90;;;;;;5014199;28;25097;-70
2022/10/03 13:29:13;;;;;;;6.70;1.67;;;17.00;99.90;;;;;;4990118;28;25083;-70
2022/10/03 13:32:04;;;;;;;10.10;2.65;;;17.00;99.90;;;;;;4985616;28;25163;-68
2022/10/03 13:34:57;;;;;;;4.57;1.13;;;16.90;99.90;;;;;;5005086;28;25063;-70
2022/10/03 13:37:50;;;;;;;5.60;1.20;;;17.00;99.90;;;;;;4999747;28;25080;-70
2022/10/03 13:40:18;;;;;;;8.52;1.30;;;17.10;99.90;;;;;;4988009;28;25095;-69
2022/10/03 13:42:52;;;;;;;10.52;1.80;;;17.00;99.90;;;;;;4996821;28;25108;-69
2022/10/03 13:45:24;;;;;;;5.13;1.55;;;17.00;99.90;;;;;;4999121;28;25164;-69
2022/10/03 13:48:09;;;;;;;5.93;1.27;;;17.20;99.90;;;;;;4982141;28;25071;-69
2022/10/03 13:50:42;;;;;;;7.68;1.55;;;17.30;99.90;;;;;;4991021;28;25366;-69
2022/10/03 13:53:32;;;;;;;9.88;1.90;;;17.40;99.90;;;;;;5000602;28;25145;-69
2022/10/03 13:56:13;;;;;;;11.75;1.80;;;17.30;99.90;;;;;;4985834;28;25168;-70
2022/10/03 13:58:54;;;;;;;9.57;1.35;;;17.30;99.90;;;;;;4998230;28;25067;-69
2022/10/03 14:01:49;;;;;;;5.00;1.65;;;17.50;99.90;;;;;;5002509;28;25060;-70
2022/10/03 14:04:24;;;;;;;7.30;1.88;;;17.40;99.90;;;;;;4990087;28;25135;-70
2022/10/03 14:07:13;;;;;;;7.00;1.55;;;17.20;99.90;;;;;;5001388;28;25146;-70
2022/10/03 14:09:39;;;;;;;11.63;1.92;;;17.40;99.90;;;;;;4998835;28;25068;-71
2022/10/03 14:12:13;;;;;;;12.80;1.83;;;17.40;99.90;;;;;;5002765;28;25044;-70
2022/10/03 14:14:55;;;;;;;5.70;1.40;;;17.50;99.90;;;;;;4998586;28;25077;-71
2022/10/03 14:17:41;;;;;;;7.85;1.55;;;17.70;99.90;;;;;;4998292;28;25066;-70
2022/10/03 14:20:15;;;;;;;10.43;1.83;;;17.70;99.90;;;;;;4970483;28;25053;-71
2022/10/03 14:23:14;;;;;;;7.78;1.30;;;17.70;99.90;;;;;;4998479;28;25050;-69
2022/10/03 14:25:47;;;;;;;8.75;1.92;;;17.60;99.90;;;;;;5000267;28;25091;-69
2022/10/03 14:28:37;;;;;;;8.27;1.52;;;17.40;99.90;;;;;;5006711;28;25129;-69
2022/10/03 14:31:13;;;;;;;9.80;1.75;;;17.10;99.90;;;;;;4990915;28;25083;-70
2022/10/03 14:33:46;;;;;;;10.25;2.33;;;17.10;99.90;;;;;;4994879;28;25050;-69
2022/10/03 14:36:30;;;;;;;6.32;1.50;;;17.20;99.90;;;;;;5005780;28;25131;-69
2022/10/03 14:39:07;;;;;;;6.95;1.50;;;17.30;99.90;;;;;;4993699;28;25068;-69